Terminal Aerodrome Forecast
Issued by NWS Des Moines, IA

Home | Current Version | Previous Version | Text Only | Print | Product List | Glossary On
Versions: 1 2 3 4 5 6 7 8 9 10 11 12 13 14 15 16 17 18 19 20 21 22
000
FTUS43 KDMX 201134
TAFALO
TAF
KALO 201134Z 2012/2112 VRB04KT P6SM SCT240
      TEMPO 2012/2015 4SM BR
     FM210500 VRB03KT 3SM BR BKN130
     FM210700 08004KT 3SM BR BKN014
     FM211000 06005KT 2SM BR OVC005=

USA.gov is the U.S. government's official web portal to all federal, state and local government web resources and services.